• Join FlightAware (Why Join?)
  • Login
  • US Flag 
10:50AM EDT


 

Airport Tracker/Info


-or-


 

Live Flight TrackerFlight Track Log ✈ QLK413D ✈ 21-Apr-2013 ✈ YEML / EMD - YBBN / BNE

Flight Track Log - Related Links

Times and Time Zones

All times are in EDT time to prevent confusion due to time zone crossing. See the QLK413D flight status page for this flight to view local times or setup timezone preferences in your user account.

Time Position Orientation Groundspeed Altitude Reporting Facility
EDT Latitude Longitude Course Direction KTS MPH feet Rate Location/Type
01:11AM -23.6087 148.2373 119° Southeast 23,000  Level Aus ATC (Calculated)
01:13AM -23.6398 148.2982 127° Southeast 207 238 7,400 -6,300 Descending Aus ATC (RADAR)
01:14AM -23.6628 148.3312 127° Southeast 225 259 7,800 1,500 Climbing Aus ATC (RADAR)
01:15AM -23.7015 148.3957 123° Southeast 272 313 9,700 2,160 Climbing Aus ATC (RADAR)
01:15AM -23.7232 148.4334 122° Southeast 255 293 11,100 1,500 Climbing Aus ATC (RADAR)
01:16AM -23.7732 148.5180 123° Southeast 277 319 12,500 1,020 Climbing Aus ATC (RADAR)
01:17AM -23.7840 148.5366 122° Southeast 284 327 12,700 840 Climbing Aus ATC (RADAR)
01:17AM -23.8108 148.5804 124° Southeast 296 341 13,200 720 Climbing Aus ATC (RADAR)
01:18AM -23.8587 148.6606 123° Southeast 318 366 13,900 780 Climbing Aus ATC (RADAR)
01:19AM -23.8913 148.7154 123° Southeast 323 372 14,500 720 Climbing Aus ATC (RADAR)
01:20AM -23.9413 148.8001 123° Southeast 331 381 15,100 540 Climbing Aus ATC (RADAR)
01:21AM -23.9928 148.8869 123° Southeast 340 391 15,600 480 Climbing Aus ATC (RADAR)
01:22AM -24.0275 148.9461 123° Southeast 345 397 15,900 420 Climbing Aus ATC (RADAR)
01:22AM -24.0411 148.9685 124° Southeast 350 403 16,000 480 Climbing Aus ATC (RADAR)
01:22AM -24.0721 149.0211 123° Southeast 352 405 16,300 420 Climbing Aus ATC (RADAR)
01:23AM -24.1217 149.1052 123° Southeast 359 413 16,700 360 Climbing Aus ATC (RADAR)
01:24AM -24.1534 149.1595 123° Southeast 362 417 16,900 420 Climbing Aus ATC (RADAR)
01:25AM -24.2131 149.2613 123° Southeast 367 422 17,400 420 Climbing Aus ATC (RADAR)
01:26AM -24.2594 149.3399 123° Southeast 368 423 17,700 360 Climbing Aus ATC (RADAR)
01:27AM -24.3107 149.4269 123° Southeast 369 425 18,100 360 Climbing Aus ATC (RADAR)
01:27AM -24.3430 149.4828 122° Southeast 370 426 18,300 360 Climbing Aus ATC (RADAR)
01:28AM -24.3943 149.5699 123° Southeast 368 423 18,700 960 Climbing Aus ATC (RADAR)
01:29AM -24.4255 149.6236 123° Southeast 359 413 19,800 2,040 Climbing Aus ATC (RADAR)
01:30AM -24.4707 149.7017 122° Southeast 298 343 22,000 1,740 Climbing Aus ATC (RADAR)
01:30AM -24.4994 149.7508 123° Southeast 289 333 22,700 480 Climbing Aus ATC (RADAR)
01:32AM -24.5475 149.8331 123° Southeast 301 346 22,900 120 Climbing Aus ATC (RADAR)
01:32AM -24.5593 149.8538 122° Southeast 308 354 22,900  Level Aus ATC (RADAR)
01:32AM -24.5884 149.9041 123° Southeast 329 379 22,900  Level Aus ATC (RADAR)
01:34AM -24.6632 150.0334 122° Southeast 356 410 22,900  Level Aus ATC (RADAR)
01:35AM -24.7181 150.1289 122° Southeast 368 423 22,900  Level Aus ATC (RADAR)
01:35AM -24.7364 150.1612 122° Southeast 370 426 22,900  Level Aus ATC (RADAR)
01:36AM -24.8020 150.2738 123° Southeast 373 429 22,900  Level Aus ATC (RADAR)
01:37AM -24.8447 150.3481 122° Southeast 383 441 22,900  Level Aus ATC (RADAR)
01:37AM -24.8585 150.3724 122° Southeast 377 434 22,900  Level Aus ATC (RADAR)
01:38AM -24.8915 150.4302 122° Southeast 378 435 22,900  Level Aus ATC (RADAR)
01:39AM -24.9381 150.5121 122° Southeast 375 432 22,900  Level Aus ATC (RADAR)
01:39AM -24.9710 150.5690 123° Southeast 373 429 22,900  Level Aus ATC (RADAR)
01:40AM -25.0412 150.6925 122° Southeast 374 430 22,900  Level Aus ATC (RADAR)
01:42AM -25.1018 150.7997 122° Southeast 375 432 22,900  Level Aus ATC (RADAR)
01:42AM -25.1159 150.8250 121° Southeast 378 435 22,900  Level Aus ATC (RADAR)
01:42AM -25.1486 150.8818 122° Southeast 374 430 22,900  Level Aus ATC (RADAR)
01:43AM -25.2095 150.9892 122° Southeast 378 435 22,900  Level Aus ATC (RADAR)
01:44AM -25.2422 151.0470 122° Southeast 378 435 22,900  Level Aus ATC (RADAR)
01:45AM -25.3036 151.1537 122° Southeast 378 435 22,900 60 Level Aus ATC (RADAR)
01:46AM -25.3358 151.2117 122° Southeast 376 433 23,000 60 Climbing Aus ATC (RADAR)
01:47AM -25.3969 151.3200 122° Southeast 380 437 23,000  Level Aus ATC (RADAR)
01:47AM -25.4156 151.3539 121° Southeast 381 438 23,000  Level Aus ATC (RADAR)
01:48AM -25.4488 151.4114 123° Southeast 379 436 23,000  Level Aus ATC (RADAR)
01:49AM -25.5008 151.5044 122° Southeast 346 398 23,000  Level Aus ATC (RADAR)
01:49AM -25.5332 151.5617 122° Southeast 327 376 23,000  Level Aus ATC (RADAR)
01:50AM -25.5786 151.6448 121° Southeast 312 359 23,000 -240 Level Aus ATC (RADAR)
01:51AM -25.6075 151.6899 125° Southeast 309 356 22,700 -600 Descending Aus ATC (RADAR)
01:52AM -25.6734 151.7457 143° Southeast 296 341 22,100 -660 Descending Aus ATC (RADAR)
01:52AM -25.6896 151.7601 141° Southeast 295 339 21,900 -600 Descending Aus ATC (RADAR)
01:53AM -25.7264 151.7931 141° Southeast 292 336 21,600 -600 Descending Aus ATC (RADAR)
01:54AM -25.7883 151.8512 140° Southeast 289 333 21,000 -660 Descending Aus ATC (RADAR)
01:54AM -25.8235 151.8885 136° Southeast 296 341 20,600 -660 Descending Aus ATC (RADAR)
01:55AM -25.8874 151.9469 141° Southeast 295 339 20,000 -600 Descending Aus ATC (RADAR)
01:56AM -25.9240 151.9807 140° Southeast 291 335 19,700 -600 Descending Aus ATC (RADAR)
01:57AM -25.9953 152.0479 140° Southeast 286 329 19,000 -660 Descending Aus ATC (RADAR)
01:57AM -26.0100 152.0626 138° Southeast 283 326 18,800 -600 Descending Aus ATC (RADAR)
01:58AM -26.0442 152.0946 140° Southeast 276 318 18,500 -600 Descending Aus ATC (RADAR)
01:59AM -26.1027 152.1496 140° Southeast 273 314 17,900 -600 Descending Aus ATC (RADAR)
01:59AM -26.1318 152.1766 140° Southeast 271 312 17,600 -600 Descending Aus ATC (RADAR)
02:01AM -26.1945 152.2358 140° Southeast 270 311 17,000 -420 Descending Aus ATC (RADAR)
02:01AM -26.2223 152.2616 140° Southeast 260 299 17,000  Level Aus ATC (RADAR)
02:02AM -26.2908 152.3284 139° Southeast 260 299 17,000  Level Aus ATC (RADAR)
02:03AM -26.3376 152.3722 140° Southeast 262 302 17,000  Level Aus ATC (RADAR)
02:04AM -26.3969 152.4278 140° Southeast 257 296 17,000  Level Aus ATC (RADAR)
02:05AM -26.4285 152.4579 139° Southeast 255 293 17,000  Level Aus ATC (RADAR)
02:06AM -26.4776 152.5055 139° Southeast 253 291 17,000  Level Aus ATC (RADAR)
02:06AM -26.5095 152.5353 140° Southeast 253 291 17,000  Level Aus ATC (RADAR)
02:07AM -26.5640 152.5875 139° Southeast 255 293 17,000  Level Aus ATC (RADAR)
02:08AM -26.5823 152.6052 139° Southeast 257 296 17,000 -360 Level Aus ATC (RADAR)
02:08AM -26.6145 152.6360 139° Southeast 259 298 16,700 -1,080 Descending Aus ATC (RADAR)
02:09AM -26.6655 152.6838 140° Southeast 253 291 15,400 -1,440 Descending Aus ATC (RADAR)
02:10AM -26.6958 152.7127 140° Southeast 242 278 14,600 -1,440 Descending Aus ATC (RADAR)
02:11AM -26.7429 152.7610 137° Southeast 252 290 13,300 -1,380 Descending Aus ATC (RADAR)
02:11AM -26.7792 152.7825 152° Southeast 249 287 12,600 -1,500 Descending Aus ATC (RADAR)
02:12AM -26.8675 152.8317 154° Southeast 286 329 10,600 -1,620 Descending Aus ATC (RADAR)
02:13AM -26.8852 152.8422 152° Southeast 286 329 10,200 -1,440 Descending Aus ATC (RADAR)
02:13AM -26.9252 152.8660 152° Southeast 274 315 9,400 -1,440 Descending Aus ATC (RADAR)
02:14AM -26.9996 152.9148 150° Southeast 259 298 7,700 -1,440 Descending Aus ATC (RADAR)
02:15AM -27.0412 152.9397 152° Southeast 249 287 6,800 -1,440 Descending Aus ATC (RADAR)
02:16AM -27.0919 152.9669 155° Southeast 240 276 5,600 -1,380 Descending Aus ATC (RADAR)
02:17AM -27.1280 152.9851 156° South 239 275 4,900 -1,200 Descending Aus ATC (RADAR)
02:18AM -27.1861 153.0163 154° Southeast 227 261 3,700 -1,140 Descending Aus ATC (RADAR)
02:18AM -27.2059 153.0269 155° Southeast 230 265 3,400 -1,140 Descending Aus ATC (RADAR)
02:18AM -27.2395 153.0450 154° Southeast 228 262 2,700 -1,140 Descending Aus ATC (RADAR)
02:19AM -27.2884 153.0716 154° Southeast 202 232 1,700 -1,020 Descending Aus ATC (RADAR)
02:20AM -27.3138 153.0916 145° Southeast 163 188 1,100 -900 Descending Aus ATC (RADAR)
02:21AM -27.3421 153.1132 146° Southeast 129 148 300 -900 Descending Aus ATC (RADAR)
02:23AM -27.3841 153.1176 227° Southwest  Level FlightAware Approximate